createdAt,value
2023-02-09T00:00:51.023Z,31.50
2023-02-09T00:02:52.761Z,31.50
2023-02-09T00:04:54.610Z,31.50
2023-02-09T00:06:56.284Z,31.50
2023-02-09T00:08:58.892Z,31.50
2023-02-09T00:11:00.970Z,31.60
2023-02-09T00:13:21.089Z,31.50
2023-02-09T00:15:22.763Z,31.60
2023-02-09T00:17:24.429Z,31.60
2023-02-09T00:19:26.090Z,31.60
2023-02-09T00:21:27.793Z,31.60
2023-02-09T00:23:31.066Z,31.60
2023-02-09T00:25:32.736Z,31.70
2023-02-09T00:27:35.647Z,31.70
2023-02-09T00:29:37.479Z,31.60
2023-02-09T00:31:39.747Z,31.60
2023-02-09T00:33:41.631Z,31.70
2023-02-09T00:35:44.191Z,31.60
2023-02-09T00:37:45.798Z,31.60
2023-02-09T00:39:47.501Z,31.60
2023-02-09T00:42:07.655Z,31.60
2023-02-09T00:44:11.421Z,31.60
2023-02-09T00:46:13.159Z,31.70
2023-02-09T00:48:14.857Z,31.70
2023-02-09T00:50:16.625Z,31.70
2023-02-09T00:52:18.306Z,31.70
2023-02-09T00:54:20.292Z,31.70
2023-02-09T00:56:21.934Z,31.60
2023-02-09T00:58:23.590Z,31.60
2023-02-09T01:00:26.153Z,31.70
2023-02-09T01:02:27.870Z,31.70
2023-02-09T01:04:29.936Z,31.60
2023-02-09T01:06:31.769Z,31.70
2023-02-09T01:08:33.936Z,31.70
2023-02-09T01:10:35.690Z,31.80
2023-02-09T01:12:40.669Z,31.70
2023-02-09T01:14:42.633Z,31.80
2023-02-09T01:16:44.366Z,31.70
2023-02-09T01:18:46.052Z,31.70
2023-02-09T01:20:47.776Z,31.70
2023-02-09T01:22:49.446Z,31.70
2023-02-09T01:24:51.289Z,31.70
2023-02-09T01:26:53.027Z,31.70
2023-02-09T01:28:55.260Z,31.70
2023-02-09T01:30:57.273Z,31.70
2023-02-09T01:32:58.987Z,31.70
2023-02-09T01:35:00.666Z,31.70
2023-02-09T01:37:02.382Z,31.80
2023-02-09T01:39:05.056Z,31.70
2023-02-09T01:41:06.733Z,31.70
2023-02-09T01:43:11.841Z,31.80
2023-02-09T01:45:28.778Z,31.70
2023-02-09T01:47:30.499Z,31.70
2023-02-09T01:49:32.166Z,31.70
2023-02-09T01:51:54.850Z,31.70
2023-02-09T01:53:57.531Z,31.80
2023-02-09T01:56:07.356Z,31.80
2023-02-09T01:58:15.246Z,31.80
2023-02-09T02:00:21.518Z,31.80
2023-02-09T02:02:23.650Z,31.80
2023-02-09T02:04:25.367Z,31.80
2023-02-09T02:06:27.097Z,31.80
2023-02-09T02:08:28.649Z,31.80
2023-02-09T02:10:31.437Z,31.80
2023-02-09T02:12:34.642Z,31.80
2023-02-09T02:14:38.634Z,31.80
2023-02-09T02:17:13.295Z,31.80
2023-02-09T02:19:23.791Z,31.80
2023-02-09T02:22:02.306Z,31.80
2023-02-09T02:24:37.730Z,31.80
2023-02-09T02:26:49.267Z,31.80
2023-02-09T02:29:12.718Z,31.80
2023-02-09T02:31:59.631Z,31.70
2023-02-09T02:34:06.780Z,31.80
2023-02-09T02:36:46.255Z,31.80
2023-02-09T02:39:27.424Z,31.80
2023-02-09T02:42:06.655Z,31.80
2023-02-09T02:44:15.842Z,31.80
2023-02-09T02:46:45.299Z,31.80
2023-02-09T02:48:59.664Z,31.80
2023-02-09T02:51:16.950Z,31.80
2023-02-09T02:53:21.765Z,31.80
2023-02-09T02:55:27.653Z,31.90
2023-02-09T02:57:33.533Z,31.90
2023-02-09T02:59:42.967Z,31.90
2023-02-09T03:02:09.896Z,31.80
2023-02-09T03:04:13.348Z,31.80
2023-02-09T03:06:16.486Z,31.90
2023-02-09T03:08:18.250Z,31.80
2023-02-09T03:10:35.182Z,31.80
2023-02-09T03:12:58.013Z,31.80
2023-02-09T03:21:03.851Z,31.90
2023-02-09T03:23:07.639Z,31.90
2023-02-09T03:25:40.430Z,31.90
2023-02-09T03:27:47.711Z,31.80
2023-02-09T03:29:53.781Z,31.80
2023-02-09T03:31:56.225Z,31.90
2023-02-09T03:33:59.601Z,31.90
2023-02-09T03:36:02.863Z,31.80
2023-02-09T03:38:07.115Z,31.90
2023-02-09T03:40:10.173Z,31.90
2023-02-09T03:42:11.974Z,32.50
2023-02-09T03:44:28.869Z,31.80
2023-02-09T03:46:33.389Z,31.80
2023-02-09T03:48:35.185Z,31.90
2023-02-09T03:50:37.246Z,31.80
2023-02-09T03:52:39.140Z,32.10
2023-02-09T03:54:41.118Z,31.80
2023-02-09T03:56:42.754Z,31.80
2023-02-09T03:58:44.390Z,31.80
2023-02-09T04:00:46.393Z,31.80
2023-02-09T04:02:48.315Z,31.80
2023-02-09T04:04:50.024Z,31.80
2023-02-09T04:06:52.687Z,31.70
2023-02-09T04:08:54.294Z,31.80
2023-02-09T04:10:59.382Z,31.70
2023-02-09T04:13:01.035Z,31.70
2023-02-09T04:15:03.169Z,31.70
2023-02-09T04:17:04.826Z,31.70
2023-02-09T04:19:09.127Z,31.70
2023-02-09T04:21:11.182Z,31.70
2023-02-09T04:23:13.154Z,31.70
2023-02-09T04:25:14.841Z,31.70
2023-02-09T04:27:16.440Z,31.70
2023-02-09T04:29:18.087Z,31.70
2023-02-09T04:31:19.806Z,31.70
2023-02-09T04:33:23.131Z,31.70
2023-02-09T04:35:24.757Z,31.70
2023-02-09T04:37:26.408Z,31.80
2023-02-09T04:39:28.135Z,31.70
2023-02-09T04:41:29.793Z,31.60
2023-02-09T04:43:32.518Z,31.60
2023-02-09T04:45:34.225Z,31.50
2023-02-09T04:47:35.899Z,31.50
2023-02-09T04:49:37.526Z,31.60
2023-02-09T04:51:39.206Z,31.60
2023-02-09T04:53:41.123Z,31.60
2023-02-09T04:55:44.732Z,31.60
2023-02-09T04:58:05.124Z,31.60
2023-02-09T05:00:07.401Z,31.40
2023-02-09T05:02:09.059Z,31.40
2023-02-09T05:04:10.780Z,31.30
2023-02-09T05:06:12.458Z,31.10
2023-02-09T05:08:14.199Z,31.10
2023-02-09T05:10:16.504Z,31.10
2023-02-09T05:12:18.152Z,31.00
2023-02-09T05:14:20.002Z,31.10
2023-02-09T05:16:21.738Z,31.10
2023-02-09T05:18:24.782Z,31.20
2023-02-09T05:20:26.398Z,31.20
2023-02-09T05:22:28.082Z,31.20
2023-02-09T05:24:29.841Z,31.20
2023-02-09T05:26:31.528Z,31.20
2023-02-09T05:28:33.230Z,31.30
2023-02-09T05:30:35.090Z,31.30
2023-02-09T05:32:36.744Z,31.40
2023-02-09T05:34:38.363Z,31.40
2023-02-09T05:36:40.030Z,31.30
2023-02-09T05:38:41.714Z,31.40
2023-02-09T05:40:45.123Z,31.40
2023-02-09T05:42:47.001Z,32.40
2023-02-09T05:44:50.634Z,32.70
2023-02-09T05:46:52.258Z,33.60
2023-02-09T05:48:53.870Z,33.60
2023-02-09T05:50:55.492Z,33.90
2023-02-09T05:52:59.437Z,33.20
2023-02-09T05:55:01.129Z,33.40
2023-02-09T05:57:03.317Z,33.40
2023-02-09T05:59:05.200Z,33.20
2023-02-09T06:01:06.845Z,33.00
2023-02-09T06:03:08.558Z,32.90
2023-02-09T06:05:10.406Z,32.80
2023-02-09T06:07:12.180Z,32.70
2023-02-09T06:09:14.474Z,32.50
2023-02-09T06:11:16.133Z,32.50
2023-02-09T06:13:17.747Z,32.60
2023-02-09T06:15:19.544Z,32.60
2023-02-09T06:17:21.164Z,32.60
2023-02-09T06:19:22.935Z,32.80
2023-02-09T06:21:24.656Z,32.80
2023-02-09T06:23:26.265Z,32.80
2023-02-09T06:25:27.899Z,33.00
2023-02-09T06:27:29.649Z,31.50
2023-02-09T06:29:31.452Z,29.50
2023-02-09T06:31:33.784Z,30.20
2023-02-09T06:33:36.540Z,31.20
2023-02-09T06:35:38.197Z,31.80
2023-02-09T06:37:39.878Z,32.20
2023-02-09T06:39:41.529Z,32.30
2023-02-09T06:41:43.138Z,32.20
2023-02-09T06:43:44.801Z,32.20
2023-02-09T06:45:46.449Z,32.10
2023-02-09T06:47:48.189Z,32.70
2023-02-09T06:49:49.781Z,32.30
2023-02-09T06:51:51.403Z,32.10
2023-02-09T06:53:53.216Z,32.10
2023-02-09T06:56:00.527Z,32.10
2023-02-09T06:58:02.213Z,32.20
2023-02-09T07:00:09.281Z,32.20
2023-02-09T07:02:11.434Z,32.30
2023-02-09T07:04:13.057Z,32.40
2023-02-09T07:06:17.557Z,32.30
2023-02-09T07:08:19.210Z,32.40
2023-02-09T07:10:20.874Z,32.50
2023-02-09T07:12:22.546Z,32.50
2023-02-09T07:14:24.170Z,32.40
2023-02-09T07:16:26.003Z,32.50
2023-02-09T07:18:28.104Z,32.60
2023-02-09T07:20:29.767Z,32.50
2023-02-09T07:22:31.661Z,32.30
2023-02-09T07:24:33.316Z,32.10
2023-02-09T07:26:34.946Z,32.10
2023-02-09T07:28:37.023Z,32.20
2023-02-09T07:30:41.155Z,32.20
2023-02-09T07:32:42.905Z,32.20
2023-02-09T07:34:44.558Z,32.20
2023-02-09T07:36:47.713Z,32.20
2023-02-09T07:38:49.855Z,32.20
2023-02-09T07:40:51.708Z,32.30
2023-02-09T07:42:53.401Z,32.20
2023-02-09T07:44:55.008Z,32.20
2023-02-09T07:46:56.734Z,32.20
2023-02-09T07:49:01.133Z,32.20
2023-02-09T07:51:03.724Z,32.20
2023-02-09T07:53:05.416Z,32.20
2023-02-09T07:55:07.435Z,32.20
2023-02-09T07:57:09.029Z,32.20
2023-02-09T07:59:11.455Z,32.20
2023-02-09T08:01:13.673Z,32.10
2023-02-09T08:03:19.262Z,32.10
2023-02-09T08:05:37.178Z,32.00
2023-02-09T08:07:38.864Z,32.00
2023-02-09T08:09:40.750Z,32.00
2023-02-09T08:11:56.842Z,32.00
2023-02-09T08:14:02.561Z,32.60
2023-02-09T08:16:06.703Z,32.00
2023-02-09T08:18:13.401Z,31.90
2023-02-09T08:20:17.898Z,31.90
2023-02-09T08:22:22.108Z,31.90
2023-02-09T08:24:23.933Z,31.80
2023-02-09T08:26:26.082Z,31.80
2023-02-09T08:28:42.775Z,31.80
2023-02-09T08:30:46.421Z,31.70
2023-02-09T08:32:48.266Z,31.70
2023-02-09T08:34:53.021Z,31.70
2023-02-09T08:36:57.234Z,31.70
2023-02-09T08:38:58.933Z,31.60
2023-02-09T08:41:04.609Z,31.50
2023-02-09T08:43:06.226Z,31.50
2023-02-09T08:45:08.341Z,31.50
2023-02-09T08:47:10.082Z,31.50
2023-02-09T08:49:11.829Z,31.40
2023-02-09T08:51:14.872Z,31.30
2023-02-09T08:53:16.586Z,31.30
2023-02-09T08:55:18.342Z,31.30
2023-02-09T08:57:20.023Z,31.30
2023-02-09T08:59:22.070Z,31.20
2023-02-09T09:01:23.787Z,31.30
2023-02-09T09:03:31.302Z,31.10
2023-02-09T09:05:36.740Z,31.10
2023-02-09T09:07:38.401Z,31.10
2023-02-09T09:09:40.188Z,31.10
2023-02-09T09:11:41.915Z,31.00
2023-02-09T09:13:43.779Z,31.10
2023-02-09T09:15:46.017Z,31.10
2023-02-09T09:17:47.986Z,31.00
2023-02-09T09:19:52.601Z,31.00
2023-02-09T09:21:54.360Z,31.00
2023-02-09T09:23:56.069Z,31.00
2023-02-09T09:26:04.230Z,31.00
2023-02-09T09:28:06.718Z,31.00
2023-02-09T09:30:08.907Z,31.10
2023-02-09T09:32:13.878Z,31.00
2023-02-09T09:34:15.636Z,31.00
2023-02-09T09:36:17.348Z,31.00
2023-02-09T09:38:18.969Z,31.10
2023-02-09T09:40:24.737Z,31.10
2023-02-09T09:42:36.697Z,31.10
2023-02-09T09:44:46.909Z,31.10
2023-02-09T09:46:51.626Z,31.00
2023-02-09T09:48:57.699Z,31.10
2023-02-09T09:51:11.710Z,31.10
2023-02-09T09:53:36.573Z,31.70
2023-02-09T09:55:38.896Z,31.20
2023-02-09T09:57:44.296Z,31.10
2023-02-09T09:59:46.425Z,31.10
2023-02-09T10:01:51.101Z,31.00
2023-02-09T10:03:55.942Z,31.10
2023-02-09T10:06:09.709Z,31.00
2023-02-09T10:08:48.881Z,31.00
2023-02-09T10:11:09.860Z,31.10
2023-02-09T10:13:24.373Z,31.10
2023-02-09T10:15:32.297Z,31.10
2023-02-09T10:17:36.751Z,31.20
2023-02-09T10:19:38.479Z,31.80
2023-02-09T10:21:40.079Z,31.10
2023-02-09T10:23:45.223Z,31.10
2023-02-09T10:26:04.767Z,31.20
2023-02-09T10:28:14.653Z,31.10
2023-02-09T10:30:27.618Z,31.20
2023-02-09T10:32:39.828Z,31.20
2023-02-09T10:34:45.652Z,31.20
2023-02-09T10:36:51.255Z,31.10
2023-02-09T10:39:03.488Z,31.10
2023-02-09T10:41:09.974Z,31.00
2023-02-09T10:43:24.250Z,31.70
2023-02-09T10:45:29.410Z,31.10
2023-02-09T10:47:31.885Z,31.10
2023-02-09T10:49:39.729Z,31.10
2023-02-09T10:51:41.342Z,31.10
2023-02-09T10:54:00.131Z,31.10
2023-02-09T10:56:04.759Z,31.10
2023-02-09T10:58:09.265Z,31.10
2023-02-09T11:00:16.760Z,31.10
2023-02-09T11:02:36.298Z,31.00
2023-02-09T11:04:40.105Z,31.70
2023-02-09T11:07:09.386Z,31.10
2023-02-09T11:09:19.982Z,31.20
2023-02-09T11:11:32.202Z,31.20
2023-02-09T11:13:40.845Z,31.10
2023-02-09T11:15:50.447Z,31.20
2023-02-09T11:18:26.174Z,31.20
2023-02-09T11:20:36.713Z,31.20
2023-02-09T11:22:56.479Z,31.20
2023-02-09T11:24:58.057Z,31.30
2023-02-09T11:27:11.918Z,31.30
2023-02-09T11:29:24.486Z,31.20
2023-02-09T11:31:39.168Z,31.20
2023-02-09T11:33:56.309Z,31.20
2023-02-09T11:36:09.834Z,31.10
2023-02-09T11:38:16.866Z,31.00
2023-02-09T11:40:33.309Z,31.10
2023-02-09T11:42:46.006Z,31.80
2023-02-09T11:45:05.909Z,31.10
2023-02-09T11:47:17.813Z,31.00
2023-02-09T11:49:25.169Z,31.10
2023-02-09T11:51:27.088Z,31.00
2023-02-09T11:53:34.961Z,31.00
2023-02-09T11:55:55.200Z,31.10
2023-02-09T11:58:36.920Z,31.10
2023-02-09T12:00:57.826Z,31.00
2023-02-09T12:03:13.900Z,30.90
2023-02-09T12:05:19.490Z,30.90
2023-02-09T12:07:34.257Z,30.90
2023-02-09T12:10:28.795Z,30.90
2023-02-09T12:12:50.564Z,30.90
2023-02-09T12:15:02.862Z,30.90
2023-02-09T12:17:34.761Z,30.90
2023-02-09T12:19:44.685Z,30.90
2023-02-09T12:21:46.466Z,30.80
2023-02-09T12:23:48.106Z,30.80
2023-02-09T12:25:59.533Z,30.70
2023-02-09T12:28:16.706Z,30.80
2023-02-09T12:30:40.421Z,30.80
2023-02-09T12:32:44.133Z,30.80
2023-02-09T12:34:51.332Z,30.70
2023-02-09T12:37:31.489Z,30.70
2023-02-09T12:39:33.924Z,30.70
2023-02-09T12:41:40.932Z,30.70
2023-02-09T12:43:45.349Z,30.70
2023-02-09T12:46:26.454Z,30.80
2023-02-09T12:48:28.181Z,30.70
2023-02-09T12:50:45.598Z,30.70
2023-02-09T12:53:35.505Z,30.80
2023-02-09T12:55:38.025Z,30.60
2023-02-09T12:57:50.877Z,30.70
2023-02-09T12:59:52.534Z,30.80
2023-02-09T13:02:07.181Z,30.80
2023-02-09T13:04:09.176Z,30.70
2023-02-09T13:06:39.282Z,30.80
2023-02-09T13:08:53.120Z,30.80
2023-02-09T13:10:59.327Z,30.80
2023-02-09T13:13:12.454Z,30.80
2023-02-09T13:15:17.259Z,30.80
2023-02-09T13:17:56.536Z,30.70
2023-02-09T13:20:04.184Z,30.70
2023-02-09T13:22:30.577Z,30.70
2023-02-09T13:24:41.646Z,30.80
2023-02-09T13:26:53.542Z,30.70
2023-02-09T13:29:20.522Z,30.80
2023-02-09T13:31:49.138Z,30.80
2023-02-09T13:33:55.728Z,30.80
2023-02-09T13:36:16.247Z,30.80
2023-02-09T13:38:29.781Z,30.80
2023-02-09T13:40:33.889Z,30.80
2023-02-09T13:42:37.110Z,30.80
2023-02-09T13:44:44.552Z,30.80
2023-02-09T13:46:52.424Z,30.80
2023-02-09T13:48:55.403Z,30.80
2023-02-09T13:50:59.748Z,30.90
2023-02-09T13:53:09.716Z,30.90
2023-02-09T13:55:17.818Z,30.90
2023-02-09T13:57:31.351Z,30.90
2023-02-09T13:59:33.475Z,30.90
2023-02-09T14:01:37.179Z,31.00
2023-02-09T14:03:57.979Z,30.90
2023-02-09T14:06:21.686Z,30.90
2023-02-09T14:08:25.051Z,30.90
2023-02-09T14:10:28.725Z,31.00
2023-02-09T14:12:52.862Z,30.90
2023-02-09T14:15:15.271Z,30.90
2023-02-09T14:17:35.594Z,31.00
2023-02-09T14:19:37.565Z,31.00
2023-02-09T14:21:40.018Z,31.00
2023-02-09T14:23:44.575Z,31.10
2023-02-09T14:25:59.921Z,31.10
2023-02-09T14:28:01.652Z,31.70
2023-02-09T14:30:03.643Z,31.10
2023-02-09T14:32:32.992Z,31.10
2023-02-09T14:34:39.369Z,31.10
2023-02-09T14:36:51.668Z,31.20
2023-02-09T14:39:06.956Z,31.20
2023-02-09T14:41:38.330Z,31.30
2023-02-09T14:43:39.904Z,31.40
2023-02-09T14:45:48.522Z,31.30
2023-02-09T14:47:50.437Z,31.30
2023-02-09T14:49:52.055Z,31.30
2023-02-09T14:52:06.117Z,31.30
2023-02-09T14:54:23.021Z,31.30
2023-02-09T14:56:34.309Z,31.30
2023-02-09T14:58:36.060Z,31.30
2023-02-09T15:00:37.770Z,31.30
2023-02-09T15:02:39.444Z,31.30
2023-02-09T15:04:41.899Z,31.30
2023-02-09T15:06:46.517Z,31.30
2023-02-09T15:08:48.173Z,31.30
2023-02-09T15:10:59.716Z,31.30
2023-02-09T15:13:03.002Z,31.30
2023-02-09T15:15:04.944Z,31.40
2023-02-09T15:17:17.817Z,31.30
2023-02-09T15:19:21.591Z,31.40
2023-02-09T15:21:23.211Z,31.40
2023-02-09T15:23:27.388Z,31.30
2023-02-09T15:25:29.574Z,31.30
2023-02-09T15:27:37.683Z,31.30
2023-02-09T15:29:39.317Z,31.20
2023-02-09T15:31:41.820Z,31.30
2023-02-09T15:33:44.064Z,31.20
2023-02-09T15:35:46.051Z,31.20
2023-02-09T15:37:59.504Z,31.10
2023-02-09T15:40:41.701Z,31.20
2023-02-09T15:43:02.081Z,31.10
2023-02-09T15:45:21.935Z,31.10
2023-02-09T15:47:42.357Z,31.10
2023-02-09T15:49:44.018Z,31.10
2023-02-09T15:51:45.807Z,31.10
2023-02-09T15:53:47.969Z,31.10
2023-02-09T15:55:49.634Z,31.20
2023-02-09T15:57:54.141Z,31.10
2023-02-09T15:59:55.786Z,31.10
2023-02-09T16:02:00.042Z,31.20
2023-02-09T16:04:13.360Z,31.10
2023-02-09T16:06:24.729Z,31.10
2023-02-09T16:08:30.263Z,31.10
2023-02-09T16:10:32.019Z,31.20
2023-02-09T16:12:33.777Z,31.10
2023-02-09T16:14:35.478Z,31.20
2023-02-09T16:16:37.133Z,31.10
2023-02-09T16:18:38.840Z,31.10
2023-02-09T16:20:46.863Z,31.10
2023-02-09T16:22:50.870Z,31.20
2023-02-09T16:24:52.574Z,31.10
2023-02-09T16:26:54.390Z,31.10
2023-02-09T16:28:56.787Z,31.10
2023-02-09T16:30:58.565Z,31.20
2023-02-09T16:33:00.583Z,31.10
2023-02-09T16:35:15.947Z,31.10
2023-02-09T16:37:26.901Z,31.10
2023-02-09T16:39:30.286Z,31.20
2023-02-09T16:41:47.038Z,31.20
2023-02-09T16:43:48.753Z,31.20
2023-02-09T16:46:02.943Z,31.20
2023-02-09T16:48:06.485Z,31.20
2023-02-09T16:50:28.452Z,31.20
2023-02-09T16:52:30.457Z,31.20
2023-02-09T16:54:37.902Z,30.30
2023-02-09T16:56:53.638Z,29.40
2023-02-09T16:58:55.605Z,29.80
2023-02-09T17:00:57.933Z,30.50
2023-02-09T17:03:07.365Z,30.60
2023-02-09T17:05:22.156Z,30.80
2023-02-09T17:07:30.121Z,31.00
2023-02-09T17:09:31.843Z,31.00
2023-02-09T17:11:33.554Z,31.10
2023-02-09T17:13:35.148Z,31.10
2023-02-09T17:15:46.505Z,31.20
2023-02-09T17:17:53.238Z,31.20
2023-02-09T17:19:55.483Z,31.30
2023-02-09T17:21:58.793Z,31.30
2023-02-09T17:24:01.027Z,31.40
2023-02-09T17:26:03.501Z,31.50
2023-02-09T17:28:05.749Z,29.80
2023-02-09T17:30:08.693Z,28.70
2023-02-09T17:32:15.324Z,28.90
2023-02-09T17:34:17.146Z,30.00
2023-02-09T17:36:28.683Z,30.60
2023-02-09T17:38:33.840Z,30.70
2023-02-09T17:40:36.841Z,30.70
2023-02-09T17:42:38.500Z,30.70
2023-02-09T17:44:46.566Z,30.70
2023-02-09T17:46:48.836Z,30.80
2023-02-09T17:48:50.577Z,30.80
2023-02-09T17:50:56.280Z,30.80
2023-02-09T17:53:00.171Z,30.90
2023-02-09T17:55:01.827Z,30.90
2023-02-09T17:57:03.557Z,31.00
2023-02-09T17:59:08.119Z,31.10
2023-02-09T18:01:29.849Z,31.40
2023-02-09T18:03:31.567Z,31.30
2023-02-09T18:05:40.452Z,31.30
2023-02-09T18:07:42.159Z,31.40
2023-02-09T18:09:44.264Z,31.60
2023-02-09T18:11:55.479Z,31.70
2023-02-09T18:13:57.092Z,31.70
2023-02-09T18:15:58.782Z,31.80
2023-02-09T18:18:00.495Z,32.00
2023-02-09T18:20:02.254Z,32.50
2023-02-09T18:22:04.334Z,32.30
2023-02-09T18:24:06.348Z,32.20
2023-02-09T18:26:08.256Z,32.20
2023-02-09T18:28:10.042Z,32.30
2023-02-09T18:30:12.819Z,32.10
2023-02-09T18:32:16.222Z,32.10
2023-02-09T18:34:18.181Z,32.00
2023-02-09T18:36:19.952Z,31.90
2023-02-09T18:38:22.614Z,31.90
2023-02-09T18:40:24.339Z,31.80
2023-02-09T18:42:26.027Z,31.70
2023-02-09T18:44:32.250Z,31.70
2023-02-09T18:46:33.995Z,31.60
2023-02-09T18:48:35.659Z,31.60
2023-02-09T18:50:38.042Z,31.50
2023-02-09T18:52:54.988Z,31.50
2023-02-09T18:54:56.672Z,31.40
2023-02-09T18:56:58.346Z,31.40
2023-02-09T18:58:59.959Z,31.40
2023-02-09T19:01:01.543Z,31.30
2023-02-09T19:03:03.352Z,31.30
2023-02-09T19:05:05.512Z,31.30
2023-02-09T19:07:09.508Z,31.30
2023-02-09T19:09:11.180Z,31.30
2023-02-09T19:11:14.832Z,31.40
2023-02-09T19:13:16.556Z,31.60
2023-02-09T19:15:19.057Z,31.80
2023-02-09T19:17:21.424Z,31.70
2023-02-09T19:19:23.246Z,31.80
2023-02-09T19:21:24.963Z,31.90
2023-02-09T19:23:26.760Z,32.30
2023-02-09T19:25:29.499Z,32.60
2023-02-09T19:27:31.205Z,32.80
2023-02-09T19:29:33.956Z,33.10
2023-02-09T19:31:36.329Z,33.30
2023-02-09T19:33:37.947Z,33.50
2023-02-09T19:35:39.626Z,33.50
2023-02-09T19:37:41.960Z,33.40
2023-02-09T19:39:52.539Z,33.20
2023-02-09T19:41:54.482Z,32.90
2023-02-09T19:43:57.739Z,32.60
2023-02-09T19:45:59.468Z,32.60
2023-02-09T19:48:01.141Z,32.60
2023-02-09T19:50:02.921Z,32.60
2023-02-09T19:52:05.834Z,32.60
2023-02-09T19:54:07.489Z,32.60
2023-02-09T19:56:16.740Z,32.60
2023-02-09T19:58:21.274Z,32.50
2023-02-09T20:00:23.079Z,32.50
2023-02-09T20:02:24.787Z,32.90
2023-02-09T20:04:26.522Z,32.50
2023-02-09T20:06:30.715Z,32.40
2023-02-09T20:08:32.596Z,32.50
2023-02-09T20:10:34.658Z,32.50
2023-02-09T20:12:36.391Z,32.40
2023-02-09T20:14:38.265Z,32.40
2023-02-09T20:16:40.441Z,32.30
2023-02-09T20:18:43.404Z,32.30
2023-02-09T20:20:45.271Z,32.30
2023-02-09T20:22:49.207Z,32.30
2023-02-09T20:24:50.832Z,32.30
2023-02-09T20:26:52.491Z,32.30
2023-02-09T20:28:55.292Z,32.30
2023-02-09T20:30:57.023Z,32.30
2023-02-09T20:32:58.795Z,32.30
2023-02-09T20:35:00.458Z,32.40
2023-02-09T20:37:02.193Z,32.50
2023-02-09T20:39:06.086Z,32.40
2023-02-09T20:41:17.919Z,32.40
2023-02-09T20:43:38.357Z,32.40
2023-02-09T20:45:58.962Z,32.40
2023-02-09T20:48:01.079Z,32.50
2023-02-09T20:50:03.183Z,32.40
2023-02-09T20:52:04.958Z,32.40
2023-02-09T20:54:07.197Z,32.30
2023-02-09T20:56:09.041Z,32.30
2023-02-09T20:58:13.493Z,32.30
2023-02-09T21:00:16.003Z,32.30
2023-02-09T21:02:17.770Z,32.30
2023-02-09T21:04:19.597Z,32.30
2023-02-09T21:06:22.539Z,32.30
2023-02-09T21:08:24.213Z,32.30
2023-02-09T21:10:25.965Z,32.30
2023-02-09T21:12:27.600Z,32.20
2023-02-09T21:14:41.540Z,32.20
2023-02-09T21:16:44.818Z,32.20
2023-02-09T21:18:46.459Z,32.20
2023-02-09T21:20:49.109Z,32.20
2023-02-09T21:22:51.401Z,32.10
2023-02-09T21:24:53.049Z,32.10
2023-02-09T21:26:54.665Z,32.10
2023-02-09T21:28:57.519Z,32.00
2023-02-09T21:30:59.237Z,32.00
2023-02-09T21:33:01.056Z,32.00
2023-02-09T21:35:02.714Z,31.90
2023-02-09T21:37:07.749Z,31.90
2023-02-09T21:39:09.679Z,31.90
2023-02-09T21:41:33.340Z,31.90
2023-02-09T21:43:35.056Z,31.90
2023-02-09T21:45:39.981Z,31.90
2023-02-09T21:47:41.724Z,31.80
2023-02-09T21:49:43.564Z,31.80
2023-02-09T21:51:45.593Z,31.70
2023-02-09T21:53:47.723Z,31.70
2023-02-09T21:55:49.354Z,31.70
2023-02-09T21:57:50.999Z,31.70
2023-02-09T21:59:53.359Z,31.70
2023-02-09T22:01:55.297Z,31.80
2023-02-09T22:03:58.266Z,31.80
2023-02-09T22:06:01.508Z,31.80
2023-02-09T22:08:03.177Z,31.80
2023-02-09T22:10:05.430Z,31.90
2023-02-09T22:12:07.710Z,31.90
2023-02-09T22:14:09.393Z,31.90
2023-02-09T22:16:16.406Z,31.90
2023-02-09T22:18:18.094Z,31.90
2023-02-09T22:20:19.779Z,31.90
2023-02-09T22:22:21.498Z,32.00
2023-02-09T22:24:23.573Z,32.00
2023-02-09T22:26:25.230Z,32.00
2023-02-09T22:28:27.893Z,32.10
2023-02-09T22:30:29.638Z,32.10
2023-02-09T22:32:31.264Z,32.10
2023-02-09T22:34:32.911Z,32.10
2023-02-09T22:36:35.884Z,32.10
2023-02-09T22:38:37.709Z,32.00
2023-02-09T22:40:39.764Z,32.20
2023-02-09T22:42:41.411Z,32.10
2023-02-09T22:44:43.063Z,32.10
2023-02-09T22:46:46.391Z,32.20
2023-02-09T22:49:02.665Z,32.20
2023-02-09T22:51:04.423Z,32.20
2023-02-09T22:53:06.255Z,32.20
2023-02-09T22:55:08.203Z,32.20
2023-02-09T22:57:09.830Z,32.20
2023-02-09T22:59:13.409Z,32.20
2023-02-09T23:01:15.512Z,32.20
2023-02-09T23:03:17.198Z,32.20
2023-02-09T23:05:18.852Z,32.20
2023-02-09T23:07:20.625Z,32.20
2023-02-09T23:09:22.273Z,32.30
2023-02-09T23:11:24.401Z,32.20
2023-02-09T23:13:26.322Z,32.30
2023-02-09T23:15:28.129Z,32.30
2023-02-09T23:17:31.138Z,32.40
2023-02-09T23:19:32.777Z,32.30
2023-02-09T23:21:37.520Z,32.40
2023-02-09T23:23:39.198Z,32.30
2023-02-09T23:25:40.815Z,32.40
2023-02-09T23:27:43.389Z,32.40
2023-02-09T23:29:45.167Z,32.40
2023-02-09T23:31:47.131Z,32.40
2023-02-09T23:33:48.833Z,32.40
2023-02-09T23:35:50.524Z,32.50
2023-02-09T23:37:52.171Z,32.40
2023-02-09T23:39:53.782Z,32.50
2023-02-09T23:41:55.507Z,32.50
2023-02-09T23:43:58.027Z,32.50
2023-02-09T23:46:05.024Z,32.50
2023-02-09T23:48:06.722Z,32.50
2023-02-09T23:50:08.579Z,32.50
2023-02-09T23:52:10.243Z,32.50
2023-02-09T23:54:12.034Z,32.50
2023-02-09T23:56:16.016Z,32.50
2023-02-09T23:58:17.627Z,32.60
